createdAt,value
2018-08-30T00:02:07.049Z,95085.36
2018-08-30T00:05:11.846Z,95083.86
2018-08-30T00:08:16.309Z,95085.55
2018-08-30T00:11:20.916Z,95083.14
2018-08-30T00:14:25.306Z,95080.13
2018-08-30T00:17:29.705Z,95085.69
2018-08-30T00:20:34.124Z,95086.07
2018-08-30T00:23:38.550Z,95078.05
2018-08-30T00:26:42.923Z,95083.23
2018-08-30T00:29:47.317Z,95085.42
2018-08-30T00:32:51.727Z,95076.66
2018-08-30T00:35:56.661Z,95079.64
2018-08-30T00:39:01.065Z,95082.80
2018-08-30T00:42:05.501Z,95086.27
2018-08-30T00:45:10.165Z,95087.28
2018-08-30T00:48:14.554Z,95086.11
2018-08-30T00:51:19.037Z,95083.01
2018-08-30T00:54:23.526Z,95080.55
2018-08-30T00:57:27.996Z,95082.66
2018-08-30T01:00:32.428Z,95083.65
2018-08-30T01:03:37.095Z,95089.70
2018-08-30T01:06:41.475Z,95082.70
2018-08-30T01:09:53.368Z,95086.72
2018-08-30T01:12:57.950Z,95085.48
2018-08-30T01:16:02.667Z,95091.87
2018-08-30T01:19:07.036Z,95086.72
2018-08-30T01:22:11.438Z,95081.84
2018-08-30T01:25:15.862Z,95083.45
2018-08-30T01:28:20.351Z,95087.42
2018-08-30T01:31:24.741Z,95074.33
2018-08-30T01:34:29.140Z,95079.06
2018-08-30T01:37:34.090Z,95080.20
2018-08-30T01:40:39.285Z,95078.83
2018-08-30T01:43:43.751Z,95085.70
2018-08-30T01:46:48.152Z,95086.17
2018-08-30T01:49:52.526Z,95079.27
2018-08-30T01:52:57.049Z,95078.50
2018-08-30T01:56:01.599Z,95080.67
2018-08-30T01:59:06.074Z,95080.01
2018-08-30T02:02:10.489Z,95080.40
2018-08-30T02:05:14.863Z,95082.44
2018-08-30T02:08:19.270Z,95081.03
2018-08-30T02:11:23.645Z,95080.16
2018-08-30T02:14:28.065Z,95079.80
2018-08-30T02:17:32.570Z,95081.06
2018-08-30T02:20:37.026Z,95077.89
2018-08-30T02:23:41.524Z,95081.06
2018-08-30T02:26:45.914Z,95080.89
2018-08-30T02:29:50.328Z,95096.79
2018-08-30T02:32:54.762Z,95092.87
2018-08-30T02:35:59.173Z,95087.02
2018-08-30T02:39:03.625Z,95088.82
2018-08-30T02:42:07.994Z,95088.75
2018-08-30T02:45:12.525Z,95092.00
2018-08-30T02:48:16.912Z,95085.89
2018-08-30T02:51:21.286Z,95082.58
2018-08-30T02:54:25.688Z,95089.59
2018-08-30T02:57:30.065Z,95079.59
2018-08-30T03:00:34.457Z,95080.71
2018-08-30T03:03:38.877Z,95085.93
2018-08-30T03:06:43.390Z,95083.46
2018-08-30T03:09:47.846Z,95085.26
2018-08-30T03:12:52.264Z,95093.51
2018-08-30T03:15:57.634Z,95090.05
2018-08-30T03:19:02.194Z,95090.09
2018-08-30T03:22:07.262Z,95092.17
2018-08-30T03:25:11.764Z,95096.40
2018-08-30T03:28:17.228Z,95099.18
2018-08-30T03:31:21.613Z,95097.11
2018-08-30T03:34:26.021Z,95096.39
2018-08-30T03:37:30.451Z,95102.11
2018-08-30T03:40:37.834Z,95107.74
2018-08-30T03:43:42.219Z,95101.65
2018-08-30T03:46:46.600Z,95107.26
2018-08-30T03:49:50.965Z,95104.29
2018-08-30T03:52:55.313Z,95102.67
2018-08-30T03:55:59.699Z,95115.25
2018-08-30T03:59:04.097Z,95114.38
2018-08-30T04:02:08.517Z,95115.78
2018-08-30T04:05:13.367Z,95120.16
2018-08-30T04:08:17.764Z,95119.38
2018-08-30T04:11:22.366Z,95126.08
2018-08-30T04:14:26.760Z,95125.47
2018-08-30T04:17:31.385Z,95127.15
2018-08-30T04:20:35.758Z,95133.79
2018-08-30T04:23:40.398Z,95133.44
2018-08-30T04:26:44.871Z,95139.98
2018-08-30T04:29:49.382Z,95141.16
2018-08-30T04:32:53.782Z,95146.52
2018-08-30T04:35:58.185Z,95148.78
2018-08-30T04:39:02.658Z,95151.98
2018-08-30T04:42:07.098Z,95156.89
2018-08-30T04:45:11.635Z,95153.88
2018-08-30T04:48:16.335Z,95153.53
2018-08-30T04:51:21.121Z,95158.08
2018-08-30T04:54:25.919Z,95162.30
2018-08-30T04:57:30.448Z,95156.35
2018-08-30T05:00:35.739Z,95165.03
2018-08-30T05:03:40.453Z,95161.61
2018-08-30T05:06:44.926Z,95176.26
2018-08-30T05:09:56.503Z,95170.30
2018-08-30T05:13:01.208Z,95177.78
2018-08-30T05:16:05.751Z,95174.36
2018-08-30T05:19:10.359Z,95189.05
2018-08-30T05:22:15.153Z,95192.01
2018-08-30T05:25:19.539Z,95193.95
2018-08-30T05:28:23.946Z,95201.81
2018-08-30T05:31:28.716Z,95207.64
2018-08-30T05:34:33.264Z,95213.77
2018-08-30T05:37:37.770Z,95215.00
2018-08-30T05:40:42.442Z,95220.57
2018-08-30T05:43:47.259Z,95225.02
2018-08-30T05:46:51.715Z,95220.57
2018-08-30T05:49:56.392Z,95221.92
2018-08-30T05:53:00.805Z,95224.61
2018-08-30T05:56:05.324Z,95227.66
2018-08-30T05:59:09.701Z,95220.47
2018-08-30T06:02:14.171Z,95225.14
2018-08-30T06:05:18.685Z,95223.22
2018-08-30T06:08:23.277Z,95221.41
2018-08-30T06:11:27.717Z,95225.77
2018-08-30T06:14:32.222Z,95228.27
2018-08-30T06:17:36.704Z,95225.84
2018-08-30T06:20:41.230Z,95232.75
2018-08-30T06:23:45.609Z,95234.31
2018-08-30T06:26:50.358Z,95236.75
2018-08-30T06:29:54.610Z,95242.64
2018-08-30T06:32:59.295Z,95245.11
2018-08-30T06:36:03.775Z,95247.61
2018-08-30T06:39:08.545Z,95249.56
2018-08-30T06:42:12.936Z,95247.38
2018-08-30T06:45:17.382Z,95246.11
2018-08-30T06:48:22.066Z,95245.81
2018-08-30T06:51:26.400Z,95245.94
2018-08-30T06:54:31.075Z,95244.52
2018-08-30T06:57:35.474Z,95252.72
2018-08-30T07:00:39.938Z,95252.50
2018-08-30T07:03:44.353Z,95258.02
2018-08-30T07:06:48.728Z,95254.86
2018-08-30T07:09:53.270Z,95261.20
2018-08-30T07:12:57.850Z,95266.06
2018-08-30T07:16:02.371Z,95273.48
2018-08-30T07:19:07.168Z,95273.48
2018-08-30T07:22:11.517Z,95278.28
2018-08-30T07:25:16.008Z,95285.70
2018-08-30T07:28:20.423Z,95285.63
2018-08-30T07:31:24.814Z,95289.47
2018-08-30T07:34:29.293Z,95292.32
2018-08-30T07:37:33.785Z,95291.16
2018-08-30T07:40:38.201Z,95295.74
2018-08-30T07:43:42.749Z,95291.31
2018-08-30T07:46:47.364Z,95302.14
2018-08-30T07:49:51.765Z,95310.54
2018-08-30T07:52:56.646Z,95312.29
2018-08-30T07:56:01.081Z,95315.03
2018-08-30T07:59:05.685Z,95320.20
2018-08-30T08:02:10.118Z,95323.24
2018-08-30T08:05:14.489Z,95328.67
2018-08-30T08:08:18.926Z,95324.38
2018-08-30T08:11:23.324Z,95333.69
2018-08-30T08:14:27.812Z,95335.90
2018-08-30T08:17:32.226Z,95334.78
2018-08-30T08:20:36.679Z,95334.59
2018-08-30T08:23:41.308Z,95337.70
2018-08-30T08:26:45.754Z,95337.28
2018-08-30T08:29:50.163Z,95340.23
2018-08-30T08:32:54.592Z,95349.88
2018-08-30T08:35:59.384Z,95350.09
2018-08-30T08:39:05.245Z,95347.12
2018-08-30T08:42:09.634Z,95344.52
2018-08-30T08:45:14.148Z,95353.20
2018-08-30T08:48:18.730Z,95359.40
2018-08-30T08:51:23.199Z,95362.88
2018-08-30T08:54:27.789Z,95355.56
2018-08-30T08:57:32.327Z,95359.84
2018-08-30T09:00:36.705Z,95362.80
2018-08-30T09:03:41.157Z,95361.80
2018-08-30T09:06:45.740Z,95369.20
2018-08-30T09:09:50.222Z,95366.16
2018-08-30T09:12:54.981Z,95377.41
2018-08-30T09:15:59.398Z,95377.75
2018-08-30T09:19:05.925Z,95382.61
2018-08-30T09:22:10.552Z,95391.48
2018-08-30T09:25:15.397Z,95385.95
2018-08-30T09:28:20.009Z,95385.84
2018-08-30T09:31:24.501Z,95387.32
2018-08-30T09:34:29.067Z,95388.41
2018-08-30T09:37:33.491Z,95391.41
2018-08-30T09:40:38.061Z,95387.09
2018-08-30T09:43:42.500Z,95392.78
2018-08-30T09:46:46.825Z,95386.00
2018-08-30T09:49:51.458Z,95379.73
2018-08-30T09:52:56.433Z,95379.66
2018-08-30T09:56:00.839Z,95386.50
2018-08-30T09:59:05.608Z,95379.18
2018-08-30T10:02:15.793Z,95374.72
2018-08-30T10:05:20.629Z,95374.91
2018-08-30T10:08:25.352Z,95379.94
2018-08-30T10:11:30.090Z,95370.73
2018-08-30T10:14:35.289Z,95377.07
2018-08-30T10:17:40.073Z,95371.97
2018-08-30T10:20:44.631Z,95376.91
2018-08-30T10:23:49.343Z,95382.87
2018-08-30T10:26:53.974Z,95386.61
2018-08-30T10:29:58.355Z,95386.53
2018-08-30T10:33:02.950Z,95383.20
2018-08-30T10:36:07.547Z,95385.41
2018-08-30T10:39:11.920Z,95384.38
2018-08-30T10:42:16.348Z,95374.16
2018-08-30T10:45:21.124Z,95380.53
2018-08-30T10:48:25.599Z,95370.72
2018-08-30T10:51:29.937Z,95378.26
2018-08-30T10:54:34.299Z,95379.55
2018-08-30T10:57:38.727Z,95376.95
2018-08-30T11:00:43.292Z,95373.30
2018-08-30T11:03:47.864Z,95370.20
2018-08-30T11:06:52.254Z,95375.23
2018-08-30T11:09:56.823Z,95373.81
2018-08-30T11:13:01.292Z,95372.92
2018-08-30T11:16:05.630Z,95379.66
2018-08-30T11:19:10.068Z,95374.03
2018-08-30T11:22:14.501Z,95374.68
2018-08-30T11:25:18.878Z,95374.00
2018-08-30T11:28:23.298Z,95378.12
2018-08-30T11:31:27.911Z,95374.28
2018-08-30T11:34:32.422Z,95382.86
2018-08-30T11:37:36.802Z,95379.25
2018-08-30T11:40:41.214Z,95382.81
2018-08-30T11:43:45.666Z,95377.38
2018-08-30T11:46:50.074Z,95379.63
2018-08-30T11:49:54.461Z,95379.25
2018-08-30T11:52:58.886Z,95389.55
2018-08-30T11:56:03.421Z,95390.66
2018-08-30T11:59:08.054Z,95390.67
2018-08-30T12:02:12.556Z,95393.83
2018-08-30T12:05:17.005Z,95398.03
2018-08-30T12:08:21.755Z,95397.59
2018-08-30T12:11:26.359Z,95404.00
2018-08-30T12:14:31.086Z,95401.29
2018-08-30T12:17:35.474Z,95412.48
2018-08-30T12:20:40.127Z,95414.23
2018-08-30T12:23:44.410Z,95416.66
2018-08-30T12:26:48.830Z,95414.59
2018-08-30T12:29:53.334Z,95407.50
2018-08-30T12:32:57.817Z,95406.22
2018-08-30T12:36:02.614Z,95409.10
2018-08-30T12:39:10.090Z,95405.13
2018-08-30T12:42:14.516Z,95397.42
2018-08-30T12:45:19.079Z,95403.33
2018-08-30T12:48:23.522Z,95402.17
2018-08-30T12:51:28.358Z,95401.14
2018-08-30T12:54:32.700Z,95403.13
2018-08-30T12:57:37.083Z,95400.27
2018-08-30T13:00:42.289Z,95404.27
2018-08-30T13:03:47.927Z,95393.25
2018-08-30T13:06:57.384Z,95400.91
2018-08-30T13:10:01.953Z,95400.00
2018-08-30T13:13:07.078Z,95406.08
2018-08-30T13:16:11.361Z,95400.38
2018-08-30T13:19:15.827Z,95401.48
2018-08-30T13:22:21.311Z,95403.83
2018-08-30T13:25:25.738Z,95409.86
2018-08-30T13:28:30.225Z,95406.37
2018-08-30T13:31:35.021Z,95409.60
2018-08-30T13:34:39.353Z,95405.59
2018-08-30T13:37:44.146Z,95409.96
2018-08-30T13:40:48.506Z,95412.95
2018-08-30T13:43:53.050Z,95413.91
2018-08-30T13:46:57.250Z,95412.89
2018-08-30T13:50:01.756Z,95410.63
2018-08-30T13:53:06.309Z,95414.97
2018-08-30T13:56:11.023Z,95418.54
2018-08-30T13:59:15.406Z,95420.97
2018-08-30T14:02:19.756Z,95421.54
2018-08-30T14:05:24.347Z,95424.44
2018-08-30T14:08:28.781Z,95427.02
2018-08-30T14:11:33.198Z,95427.09
2018-08-30T14:14:37.541Z,95427.95
2018-08-30T14:17:41.978Z,95435.27
2018-08-30T14:20:46.585Z,95438.00
2018-08-30T14:23:51.125Z,95438.50
2018-08-30T14:26:55.522Z,95436.19
2018-08-30T14:29:59.876Z,95433.20
2018-08-30T14:33:04.468Z,95421.66
2018-08-30T14:36:08.623Z,95410.20
2018-08-30T14:39:13.149Z,95413.98
2018-08-30T14:42:17.624Z,95416.89
2018-08-30T14:45:22.029Z,95414.26
2018-08-30T14:48:26.386Z,95418.95
2018-08-30T14:51:30.898Z,95424.73
2018-08-30T14:54:35.275Z,95425.22
2018-08-30T14:57:39.691Z,95426.27
2018-08-30T15:00:44.159Z,95421.94
2018-08-30T15:03:48.541Z,95423.58
2018-08-30T15:06:52.925Z,95420.11
2018-08-30T15:09:57.334Z,95426.09
2018-08-30T15:13:01.843Z,95424.86
2018-08-30T15:16:06.583Z,95430.48
2018-08-30T15:19:11.300Z,95434.72
2018-08-30T15:22:15.625Z,95432.09
2018-08-30T15:25:20.067Z,95434.84
2018-08-30T15:28:24.497Z,95434.63
2018-08-30T15:31:28.930Z,95438.75
2018-08-30T15:34:33.402Z,95433.70
2018-08-30T15:37:37.748Z,95439.19
2018-08-30T15:40:42.509Z,95446.80
2018-08-30T15:43:47.560Z,95442.95
2018-08-30T15:46:52.110Z,95436.14
2018-08-30T15:49:56.576Z,95436.70
2018-08-30T15:53:01.285Z,95434.78
2018-08-30T15:56:06.063Z,95435.01
2018-08-30T15:59:10.497Z,95436.56
2018-08-30T16:02:15.053Z,95439.95
2018-08-30T16:05:19.451Z,95434.76
2018-08-30T16:08:24.148Z,95432.99
2018-08-30T16:11:28.540Z,95434.80
2018-08-30T16:14:32.969Z,95434.48
2018-08-30T16:17:37.328Z,95430.41
2018-08-30T16:20:41.977Z,95430.20
2018-08-30T16:23:46.345Z,95429.70
2018-08-30T16:26:51.001Z,95426.81
2018-08-30T16:29:55.646Z,95428.61
2018-08-30T16:33:00.165Z,95428.54
2018-08-30T16:36:04.805Z,95429.97
2018-08-30T16:39:11.472Z,95430.11
2018-08-30T16:42:15.924Z,95422.38
2018-08-30T16:45:20.352Z,95426.24
2018-08-30T16:48:24.808Z,95424.61
2018-08-30T16:51:29.221Z,95426.39
2018-08-30T16:54:40.406Z,95434.47
2018-08-30T16:57:45.190Z,95426.21
2018-08-30T17:00:49.597Z,95433.45
2018-08-30T17:03:54.059Z,95426.05
2018-08-30T17:06:58.580Z,95422.38
2018-08-30T17:10:02.989Z,95423.17
2018-08-30T17:13:07.677Z,95425.63
2018-08-30T17:16:12.134Z,95425.72
2018-08-30T17:19:25.364Z,95415.60
2018-08-30T17:22:29.713Z,95417.32
2018-08-30T17:25:34.301Z,95406.53
2018-08-30T17:28:38.792Z,95413.57
2018-08-30T17:31:43.442Z,95411.59
2018-08-30T17:34:47.979Z,95418.64
2018-08-30T17:37:53.417Z,95413.36
2018-08-30T17:40:57.796Z,95419.70
2018-08-30T17:44:02.338Z,95424.08
2018-08-30T17:47:06.778Z,95422.86
2018-08-30T17:50:11.536Z,95422.38
2018-08-30T17:53:15.934Z,95423.28
2018-08-30T17:56:20.531Z,95419.55
2018-08-30T17:59:25.209Z,95418.98
2018-08-30T18:02:29.469Z,95424.78
2018-08-30T18:05:33.909Z,95424.33
2018-08-30T18:08:38.316Z,95432.71
2018-08-30T18:11:42.746Z,95438.75
2018-08-30T18:14:47.175Z,95433.05
2018-08-30T18:17:51.551Z,95439.75
2018-08-30T18:20:55.953Z,95441.43
2018-08-30T18:24:00.333Z,95441.58
2018-08-30T18:27:04.965Z,95447.41
2018-08-30T18:30:10.845Z,95460.25
2018-08-30T18:33:15.493Z,95448.86
2018-08-30T18:36:20.155Z,95446.03
2018-08-30T18:39:24.626Z,95445.25
2018-08-30T18:42:29.175Z,95443.41
2018-08-30T18:45:33.473Z,95455.59
2018-08-30T18:48:37.933Z,95460.44
2018-08-30T18:51:42.404Z,95461.83
2018-08-30T18:54:47.034Z,95463.58
2018-08-30T18:57:51.383Z,95459.20
2018-08-30T19:00:55.822Z,95461.91
2018-08-30T19:04:00.213Z,95460.28
2018-08-30T19:07:04.708Z,95472.34
2018-08-30T19:10:09.271Z,95462.88
2018-08-30T19:13:13.817Z,95461.34
2018-08-30T19:16:23.333Z,95458.37
2018-08-30T19:19:28.436Z,95464.72
2018-08-30T19:22:32.858Z,95464.58
2018-08-30T19:25:37.440Z,95468.08
2018-08-30T19:28:42.704Z,95462.36
2018-08-30T19:31:47.077Z,95468.23
2018-08-30T19:34:51.477Z,95470.91
2018-08-30T19:37:55.827Z,95475.84
2018-08-30T19:41:05.897Z,95478.52
2018-08-30T19:44:11.297Z,95472.76
2018-08-30T19:47:15.746Z,95471.20
2018-08-30T19:50:20.465Z,95470.83
2018-08-30T19:53:24.849Z,95479.41
2018-08-30T19:56:29.362Z,95477.95
2018-08-30T19:59:34.099Z,95478.37
2018-08-30T20:02:38.669Z,95473.95
2018-08-30T20:05:43.025Z,95481.66
2018-08-30T20:08:47.414Z,95483.70
2018-08-30T20:11:52.016Z,95478.97
2018-08-30T20:14:56.430Z,95471.73
2018-08-30T20:18:00.893Z,95473.45
2018-08-30T20:21:05.388Z,95486.41
2018-08-30T20:24:10.976Z,95485.39
2018-08-30T20:27:15.368Z,95486.00
2018-08-30T20:30:19.762Z,95477.08
2018-08-30T20:33:24.529Z,95481.53
2018-08-30T20:36:28.898Z,95483.55
2018-08-30T20:39:33.260Z,95478.20
2018-08-30T20:42:37.969Z,95469.19
2018-08-30T20:45:42.336Z,95468.83
2018-08-30T20:48:47.004Z,95467.25
2018-08-30T20:51:51.461Z,95473.15
2018-08-30T20:54:55.889Z,95476.13
2018-08-30T20:58:00.264Z,95479.24
2018-08-30T21:01:04.677Z,95467.22
2018-08-30T21:04:09.469Z,95470.78
2018-08-30T21:07:13.870Z,95459.42
2018-08-30T21:10:18.345Z,95459.23
2018-08-30T21:13:22.708Z,95457.75
2018-08-30T21:16:27.132Z,95451.55
2018-08-30T21:19:31.522Z,95450.99
2018-08-30T21:22:35.969Z,95449.66
2018-08-30T21:25:41.482Z,95449.09
2018-08-30T21:28:45.953Z,95440.81
2018-08-30T21:31:50.345Z,95437.91
2018-08-30T21:34:54.747Z,95439.70
2018-08-30T21:38:00.013Z,95431.28
2018-08-30T21:41:05.076Z,95435.66
2018-08-30T21:44:10.638Z,95442.66
2018-08-30T21:47:17.233Z,95447.47
2018-08-30T21:50:23.767Z,95451.48
2018-08-30T21:53:28.193Z,95447.64
2018-08-30T21:56:32.600Z,95450.70
2018-08-30T21:59:37.025Z,95456.09
2018-08-30T22:02:41.549Z,95451.40
2018-08-30T22:05:45.928Z,95448.66
2018-08-30T22:08:50.334Z,95448.55
2018-08-30T22:11:54.721Z,95449.32
2018-08-30T22:14:59.329Z,95461.91
2018-08-30T22:18:03.691Z,95454.53
2018-08-30T22:21:08.069Z,95451.42
2018-08-30T22:24:12.546Z,95449.53
2018-08-30T22:27:16.922Z,95445.72
2018-08-30T22:30:21.372Z,95437.52
2018-08-30T22:33:25.879Z,95437.83
2018-08-30T22:36:30.223Z,95434.57
2018-08-30T22:39:34.747Z,95436.58
2018-08-30T22:42:39.147Z,95431.90
2018-08-30T22:45:43.628Z,95437.02
2018-08-30T22:48:48.034Z,95429.00
2018-08-30T22:51:52.435Z,95424.58
2018-08-30T22:54:56.885Z,95425.14
2018-08-30T22:58:01.236Z,95418.55
2018-08-30T23:01:05.697Z,95398.40
2018-08-30T23:04:11.095Z,95399.59
2018-08-30T23:07:15.570Z,95391.72
2018-08-30T23:10:19.986Z,95381.34
2018-08-30T23:13:24.368Z,95371.91
2018-08-30T23:16:28.764Z,95359.19
2018-08-30T23:19:33.177Z,95349.28
2018-08-30T23:22:37.733Z,95345.64
2018-08-30T23:25:42.290Z,95343.86
2018-08-30T23:28:46.649Z,95344.72
2018-08-30T23:31:51.134Z,95353.13
2018-08-30T23:34:55.516Z,95358.30
2018-08-30T23:37:59.928Z,95351.13
2018-08-30T23:41:04.365Z,95368.27
2018-08-30T23:44:09.394Z,95367.14
2018-08-30T23:47:13.954Z,95368.90
2018-08-30T23:50:18.713Z,95367.72
2018-08-30T23:53:23.300Z,95368.72
2018-08-30T23:56:28.021Z,95375.36
2018-08-30T23:59:49.188Z,95374.03
